createdAt,value
2017-11-24T00:00:31.774Z,3.53
2017-11-24T00:03:01.405Z,3.23
2017-11-24T00:05:30.304Z,3.83
2017-11-24T00:07:58.447Z,3.30
2017-11-24T00:10:27.354Z,3.37
2017-11-24T00:12:55.500Z,3.90
2017-11-24T00:15:23.620Z,3.57
2017-11-24T00:17:51.768Z,4.17
2017-11-24T00:20:20.663Z,3.70
2017-11-24T00:22:48.804Z,3.87
2017-11-24T00:25:16.933Z,4.27
2017-11-24T00:27:45.078Z,3.93
2017-11-24T00:30:13.200Z,3.70
2017-11-24T00:32:41.350Z,3.53
2017-11-24T00:35:09.488Z,4.30
2017-11-24T00:37:38.415Z,3.20
2017-11-24T00:40:06.532Z,3.57
2017-11-24T00:42:35.435Z,3.60
2017-11-24T00:45:04.308Z,3.20
2017-11-24T00:47:32.433Z,3.73
2017-11-24T00:50:00.578Z,4.03
2017-11-24T00:52:28.720Z,4.67
2017-11-24T00:54:56.857Z,4.20
2017-11-24T00:57:24.988Z,3.77
2017-11-24T00:59:53.878Z,3.63
2017-11-24T01:02:22.758Z,3.60
2017-11-24T01:04:51.677Z,3.80
2017-11-24T01:07:19.818Z,3.10
2017-11-24T01:09:48.721Z,3.63
2017-11-24T01:12:17.638Z,3.13
2017-11-24T01:14:46.514Z,3.17
2017-11-24T01:17:15.073Z,3.47
2017-11-24T01:19:43.953Z,3.10
2017-11-24T01:22:12.090Z,3.60
2017-11-24T01:24:40.214Z,3.97
2017-11-24T01:27:09.106Z,3.27
2017-11-24T01:29:38.017Z,3.20
2017-11-24T01:32:06.174Z,3.50
2017-11-24T01:34:35.066Z,3.53
2017-11-24T01:37:03.961Z,3.07
2017-11-24T01:39:32.839Z,3.37
2017-11-24T01:42:01.751Z,3.70
2017-11-24T01:44:29.900Z,3.37
2017-11-24T01:46:58.787Z,3.20
2017-11-24T01:49:27.686Z,3.70
2017-11-24T01:51:56.575Z,3.20
2017-11-24T01:54:25.492Z,3.37
2017-11-24T01:56:53.607Z,3.60
2017-11-24T01:59:21.742Z,3.80
2017-11-24T02:01:49.859Z,3.50
2017-11-24T02:04:17.995Z,3.37
2017-11-24T02:06:46.116Z,3.30
2017-11-24T02:09:15.011Z,3.97
2017-11-24T02:11:43.902Z,3.80
2017-11-24T02:14:12.816Z,3.57
2017-11-24T02:16:41.043Z,4.03
2017-11-24T02:19:09.152Z,3.73
2017-11-24T02:21:37.274Z,3.57
2017-11-24T02:24:06.182Z,3.43
2017-11-24T02:26:34.314Z,3.90
2017-11-24T02:29:02.448Z,3.90
2017-11-24T02:31:31.341Z,3.17
2017-11-24T02:33:59.447Z,3.37
2017-11-24T02:36:27.626Z,3.87
2017-11-24T02:38:55.770Z,3.80
2017-11-24T02:41:23.905Z,3.13
2017-11-24T02:43:52.806Z,4.50
2017-11-24T02:46:21.775Z,3.60
2017-11-24T02:48:49.885Z,3.70
2017-11-24T02:51:18.780Z,3.60
2017-11-24T02:53:46.900Z,3.13
2017-11-24T02:56:15.782Z,3.90
2017-11-24T02:58:43.927Z,3.67
2017-11-24T03:01:12.104Z,3.40
2017-11-24T03:03:40.233Z,3.07
2017-11-24T03:06:08.353Z,3.37
2017-11-24T03:08:36.824Z,3.77
2017-11-24T03:11:04.934Z,3.93
2017-11-24T03:13:33.075Z,3.03
2017-11-24T03:16:01.200Z,4.00
2017-11-24T03:18:30.096Z,3.87
2017-11-24T03:20:59.043Z,3.60
2017-11-24T03:23:27.181Z,3.60
2017-11-24T03:25:55.316Z,3.60
2017-11-24T03:28:24.217Z,3.90
2017-11-24T03:30:52.365Z,4.00
2017-11-24T03:33:20.485Z,4.33
2017-11-24T03:35:48.618Z,3.97
2017-11-24T03:38:16.748Z,3.20
2017-11-24T03:40:45.632Z,3.70
2017-11-24T03:43:13.765Z,4.23
2017-11-24T03:45:42.662Z,4.30
2017-11-24T03:48:11.554Z,4.33
2017-11-24T03:50:40.484Z,3.80
2017-11-24T03:53:08.677Z,3.90
2017-11-24T03:55:36.826Z,3.20
2017-11-24T03:58:04.977Z,3.70
2017-11-24T04:00:33.114Z,3.80
2017-11-24T04:03:01.250Z,4.17
2017-11-24T04:05:29.413Z,4.30
2017-11-24T04:07:57.592Z,3.47
2017-11-24T04:10:25.729Z,3.70
2017-11-24T04:12:54.628Z,3.70
2017-11-24T04:15:22.744Z,3.80
2017-11-24T04:17:50.890Z,3.70
2017-11-24T04:20:19.037Z,4.03
2017-11-24T04:22:48.038Z,3.80
2017-11-24T04:25:16.174Z,4.33
2017-11-24T04:27:44.294Z,3.20
2017-11-24T04:30:12.479Z,3.50
2017-11-24T04:32:40.594Z,3.60
2017-11-24T04:35:09.069Z,3.77
2017-11-24T04:37:38.692Z,4.43
2017-11-24T04:40:07.623Z,4.27
2017-11-24T04:42:35.744Z,3.53
2017-11-24T04:45:04.645Z,3.83
2017-11-24T04:47:32.804Z,3.70
2017-11-24T04:50:00.967Z,3.53
2017-11-24T04:52:29.206Z,4.70
2017-11-24T04:54:57.335Z,4.40
2017-11-24T04:57:26.221Z,4.20
2017-11-24T04:59:55.133Z,4.57
2017-11-24T05:02:24.050Z,3.73
2017-11-24T05:04:52.209Z,4.03
2017-11-24T05:07:20.474Z,4.40
2017-11-24T05:09:48.603Z,4.50
2017-11-24T05:12:16.741Z,4.50
2017-11-24T05:14:44.864Z,5.07
2017-11-24T05:17:13.087Z,5.27
2017-11-24T05:19:41.275Z,5.57
2017-11-24T05:22:09.423Z,5.17
2017-11-24T05:24:37.560Z,5.30
2017-11-24T05:27:06.451Z,4.70
2017-11-24T05:29:35.345Z,4.63
2017-11-24T05:32:04.246Z,5.10
2017-11-24T05:34:32.386Z,4.97
2017-11-24T05:37:00.540Z,5.57
2017-11-24T05:39:28.701Z,5.70
2017-11-24T05:41:56.973Z,5.80
2017-11-24T05:44:25.120Z,6.73
2017-11-24T05:46:53.261Z,6.23
2017-11-24T05:49:21.400Z,9.23
2017-11-24T05:51:49.540Z,10.60
2017-11-24T05:54:17.668Z,14.13
2017-11-24T05:56:47.313Z,12.70
2017-11-24T05:59:15.458Z,8.37
2017-11-24T06:01:43.592Z,8.30
2017-11-24T06:04:11.713Z,6.13
2017-11-24T06:06:40.640Z,6.00
2017-11-24T06:09:08.814Z,7.33
2017-11-24T06:11:37.010Z,10.00
2017-11-24T06:14:05.150Z,10.57
2017-11-24T06:16:33.314Z,9.43
2017-11-24T06:19:01.512Z,8.83
2017-11-24T06:21:29.676Z,7.23
2017-11-24T06:23:57.848Z,7.90
2017-11-24T06:26:25.969Z,7.50
2017-11-24T06:28:54.115Z,6.33
2017-11-24T06:31:22.282Z,7.53
2017-11-24T06:33:50.424Z,5.20
2017-11-24T06:36:18.575Z,5.00
2017-11-24T06:38:47.489Z,5.50
2017-11-24T06:41:16.617Z,5.27
2017-11-24T06:43:44.845Z,5.77
2017-11-24T06:46:12.985Z,5.30
2017-11-24T06:48:42.628Z,5.13
2017-11-24T06:51:10.776Z,5.97
2017-11-24T06:53:39.669Z,5.47
2017-11-24T06:56:08.594Z,6.13
2017-11-24T06:58:36.727Z,8.70
2017-11-24T07:01:04.860Z,7.80
2017-11-24T07:03:33.014Z,8.50
2017-11-24T07:06:01.149Z,8.17
2017-11-24T07:08:30.057Z,7.03
2017-11-24T07:10:58.230Z,7.30
2017-11-24T07:13:27.106Z,7.80
2017-11-24T07:15:56.001Z,6.30
2017-11-24T07:18:24.985Z,6.60
2017-11-24T07:20:53.146Z,7.33
2017-11-24T07:23:22.076Z,7.43
2017-11-24T07:25:50.201Z,6.17
2017-11-24T07:28:18.345Z,7.80
2017-11-24T07:30:46.501Z,9.40
2017-11-24T07:33:14.643Z,8.53
2017-11-24T07:35:43.538Z,7.83
2017-11-24T07:38:11.698Z,8.83
2017-11-24T07:40:40.611Z,7.97
2017-11-24T07:43:08.778Z,8.40
2017-11-24T07:45:37.690Z,7.30
2017-11-24T07:48:05.816Z,8.03
2017-11-24T07:50:33.959Z,6.20
2017-11-24T07:53:02.205Z,6.40
2017-11-24T07:55:30.342Z,6.07
2017-11-24T07:57:58.483Z,5.50
2017-11-24T08:00:26.609Z,4.77
2017-11-24T08:02:55.526Z,5.37
2017-11-24T08:05:23.667Z,5.10
2017-11-24T08:07:51.809Z,4.73
2017-11-24T08:10:20.057Z,4.80
2017-11-24T08:12:48.211Z,5.07
2017-11-24T08:15:16.347Z,6.93
2017-11-24T08:17:44.492Z,5.40
2017-11-24T08:20:12.674Z,4.23
2017-11-24T08:22:40.830Z,4.30
2017-11-24T08:25:08.964Z,4.70
2017-11-24T08:27:37.169Z,4.60
2017-11-24T08:30:06.073Z,4.73
2017-11-24T08:32:34.220Z,4.77
2017-11-24T08:35:02.346Z,4.43
2017-11-24T08:37:31.265Z,3.63
2017-11-24T08:39:59.444Z,3.90
2017-11-24T08:42:28.355Z,3.70
2017-11-24T08:44:56.552Z,3.70
2017-11-24T08:47:30.353Z,3.70
2017-11-24T08:49:58.518Z,3.40
2017-11-24T08:52:26.653Z,3.10
2017-11-24T08:54:55.557Z,5.80
2017-11-24T08:57:23.697Z,3.90
2017-11-24T08:59:51.873Z,4.10
2017-11-24T09:02:20.023Z,4.03
2017-11-24T09:04:48.140Z,3.63
2017-11-24T09:07:16.298Z,3.27
2017-11-24T09:09:45.162Z,3.70
2017-11-24T09:12:14.089Z,4.20
2017-11-24T09:14:42.198Z,3.23
2017-11-24T09:17:10.353Z,2.70
2017-11-24T09:19:38.521Z,3.60
2017-11-24T09:22:06.634Z,3.40
2017-11-24T09:24:35.560Z,3.50
2017-11-24T09:27:03.681Z,3.07
2017-11-24T09:29:31.827Z,3.00
2017-11-24T09:31:59.955Z,3.37
2017-11-24T09:34:28.992Z,2.70
2017-11-24T09:36:57.098Z,3.40
2017-11-24T09:39:25.260Z,3.47
2017-11-24T09:41:53.395Z,4.70
2017-11-24T09:44:21.574Z,3.87
2017-11-24T09:46:50.458Z,3.60
2017-11-24T09:49:18.592Z,3.60
2017-11-24T09:51:47.490Z,2.93
2017-11-24T09:54:16.500Z,3.10
2017-11-24T09:56:45.399Z,3.40
2017-11-24T09:59:13.565Z,3.43
2017-11-24T10:01:41.710Z,3.57
2017-11-24T10:04:11.077Z,3.57
2017-11-24T10:06:39.322Z,3.40
2017-11-24T10:09:07.475Z,3.77
2017-11-24T10:11:36.365Z,3.20
2017-11-24T10:14:04.523Z,2.80
2017-11-24T10:16:32.689Z,3.40
2017-11-24T10:19:01.598Z,3.50
2017-11-24T10:21:51.258Z,3.00
2017-11-24T10:24:19.389Z,3.30
2017-11-24T10:26:48.579Z,3.60
2017-11-24T10:29:16.694Z,3.70
2017-11-24T10:31:46.776Z,2.97
2017-11-24T10:34:14.919Z,3.70
2017-11-24T10:36:43.816Z,3.30
2017-11-24T10:39:11.958Z,3.57
2017-11-24T10:41:40.894Z,4.20
2017-11-24T10:44:09.801Z,3.37
2017-11-24T10:46:37.934Z,3.57
2017-11-24T10:49:06.081Z,3.80
2017-11-24T10:51:35.000Z,4.17
2017-11-24T10:54:03.134Z,3.63
2017-11-24T10:56:31.294Z,3.30
2017-11-24T10:58:59.426Z,3.20
2017-11-24T11:01:27.549Z,3.50
2017-11-24T11:03:56.443Z,4.20
2017-11-24T11:06:25.358Z,3.97
2017-11-24T11:08:53.531Z,3.40
2017-11-24T11:11:21.728Z,3.37
2017-11-24T11:13:49.853Z,3.60
2017-11-24T11:16:17.982Z,3.20
2017-11-24T11:18:46.106Z,2.97
2017-11-24T11:21:15.860Z,3.63
2017-11-24T11:23:43.998Z,3.70
2017-11-24T11:26:12.151Z,4.37
2017-11-24T11:28:41.992Z,3.50
2017-11-24T11:31:10.142Z,3.60
2017-11-24T11:33:39.044Z,3.63
2017-11-24T11:36:07.173Z,3.40
2017-11-24T11:38:35.354Z,4.10
2017-11-24T11:41:05.025Z,3.67
2017-11-24T11:43:33.232Z,3.97
2017-11-24T11:46:01.618Z,4.70
2017-11-24T11:48:29.776Z,4.63
2017-11-24T11:50:58.130Z,4.23
2017-11-24T11:53:26.257Z,7.10
2017-11-24T11:55:55.173Z,7.23
2017-11-24T11:58:23.288Z,6.13
2017-11-24T12:00:51.469Z,8.83
2017-11-24T12:03:20.393Z,8.70
2017-11-24T12:05:48.555Z,5.97
2017-11-24T12:08:16.702Z,4.83
2017-11-24T12:10:44.864Z,5.60
2017-11-24T12:13:12.997Z,6.00
2017-11-24T12:15:41.124Z,5.20
2017-11-24T12:18:09.251Z,4.83
2017-11-24T12:20:37.406Z,5.07
2017-11-24T12:23:05.709Z,5.40
2017-11-24T12:25:33.822Z,5.60
2017-11-24T12:28:01.971Z,5.13
2017-11-24T12:30:30.115Z,5.53
2017-11-24T12:32:58.282Z,5.70
2017-11-24T12:35:26.436Z,6.30
2017-11-24T12:37:56.347Z,6.30
2017-11-24T12:40:25.234Z,5.70
2017-11-24T12:42:54.166Z,7.27
2017-11-24T12:45:22.301Z,6.77
2017-11-24T12:47:51.207Z,6.67
2017-11-24T12:50:19.372Z,6.40
2017-11-24T12:52:47.763Z,6.13
2017-11-24T12:55:15.915Z,7.00
2017-11-24T12:57:44.815Z,6.63
2017-11-24T13:00:13.007Z,5.70
2017-11-24T13:02:41.131Z,7.10
2017-11-24T13:05:09.371Z,7.40
2017-11-24T13:07:37.626Z,6.30
2017-11-24T13:10:05.886Z,7.00
2017-11-24T13:12:34.014Z,5.63
2017-11-24T13:15:02.391Z,6.07
2017-11-24T13:17:30.535Z,6.13
2017-11-24T13:19:58.682Z,6.63
2017-11-24T13:22:26.884Z,6.80
2017-11-24T13:24:55.027Z,7.10
2017-11-24T13:27:23.224Z,6.27
2017-11-24T13:29:51.373Z,7.37
2017-11-24T13:32:19.526Z,7.30
2017-11-24T13:34:48.698Z,6.87
2017-11-24T13:37:17.617Z,7.90
2017-11-24T13:39:46.864Z,8.00
2017-11-24T13:42:15.003Z,9.53
2017-11-24T13:44:44.088Z,9.40
2017-11-24T13:47:12.236Z,8.87
2017-11-24T13:49:40.365Z,8.10
2017-11-24T13:52:09.589Z,8.60
2017-11-24T13:54:38.507Z,8.30
2017-11-24T13:57:06.651Z,8.60
2017-11-24T13:59:34.793Z,8.50
2017-11-24T14:02:02.988Z,9.77
2017-11-24T14:04:31.307Z,10.83
2017-11-24T14:07:00.282Z,10.97
2017-11-24T14:09:28.430Z,12.73
2017-11-24T14:11:56.587Z,15.53
2017-11-24T14:14:24.757Z,13.90
2017-11-24T14:16:52.911Z,12.20
2017-11-24T14:19:21.842Z,12.33
2017-11-24T14:21:49.998Z,11.23
2017-11-24T14:24:18.177Z,11.27
2017-11-24T14:26:47.113Z,10.43
2017-11-24T14:29:16.022Z,10.67
2017-11-24T14:31:44.178Z,11.10
2017-11-24T14:34:13.548Z,9.90
2017-11-24T14:36:41.695Z,8.67
2017-11-24T14:39:09.822Z,8.17
2017-11-24T14:41:39.734Z,7.80
2017-11-24T14:44:09.504Z,8.67
2017-11-24T14:46:37.628Z,7.73
2017-11-24T14:49:06.534Z,8.27
2017-11-24T14:51:34.685Z,6.83
2017-11-24T14:54:03.582Z,6.57
2017-11-24T14:56:31.727Z,7.23
2017-11-24T14:58:59.882Z,6.80
2017-11-24T15:01:28.001Z,6.13
2017-11-24T15:03:56.903Z,6.10
2017-11-24T15:06:25.699Z,6.20
2017-11-24T15:08:53.868Z,6.17
2017-11-24T15:11:21.986Z,6.07
2017-11-24T15:13:50.145Z,6.20
2017-11-24T15:16:18.269Z,6.73
2017-11-24T15:18:46.995Z,6.80
2017-11-24T15:21:15.130Z,6.80
2017-11-24T15:23:43.266Z,6.00
2017-11-24T15:26:11.414Z,5.80
2017-11-24T15:28:39.697Z,5.60
2017-11-24T15:31:07.854Z,7.40
2017-11-24T15:33:35.992Z,6.17
2017-11-24T15:36:04.932Z,6.20
2017-11-24T15:38:33.074Z,5.43
2017-11-24T15:41:01.233Z,5.50
2017-11-24T15:43:29.371Z,5.97
2017-11-24T15:45:57.530Z,5.23
2017-11-24T15:48:25.644Z,6.00
2017-11-24T15:50:54.578Z,7.43
2017-11-24T15:53:22.705Z,6.60
2017-11-24T15:55:50.875Z,6.50
2017-11-24T15:58:19.783Z,7.43
2017-11-24T16:00:47.915Z,7.00
2017-11-24T16:03:16.834Z,6.90
2017-11-24T16:05:44.984Z,7.90
2017-11-24T16:08:13.118Z,6.97
2017-11-24T16:10:41.285Z,6.40
2017-11-24T16:13:09.487Z,7.50
2017-11-24T16:15:37.605Z,8.00
2017-11-24T16:18:05.730Z,7.13
2017-11-24T16:20:33.906Z,8.30
2017-11-24T16:23:02.023Z,7.70
2017-11-24T16:25:30.175Z,6.73
2017-11-24T16:27:59.065Z,7.60
2017-11-24T16:30:27.975Z,7.13
2017-11-24T16:32:56.122Z,9.53
2017-11-24T16:35:25.021Z,8.27
2017-11-24T16:37:53.172Z,8.03
2017-11-24T16:40:21.477Z,8.20
2017-11-24T16:42:49.713Z,8.30
2017-11-24T16:45:17.855Z,7.00
2017-11-24T16:47:46.005Z,7.07
2017-11-24T16:50:14.180Z,7.70
2017-11-24T16:52:42.330Z,8.10
2017-11-24T16:55:11.238Z,8.00
2017-11-24T16:57:39.422Z,9.00
2017-11-24T17:00:07.574Z,7.50
2017-11-24T17:02:36.510Z,7.90
2017-11-24T17:05:04.647Z,8.77
2017-11-24T17:07:32.828Z,8.80
2017-11-24T17:10:00.975Z,9.33
2017-11-24T17:12:30.025Z,8.40
2017-11-24T17:14:58.225Z,9.33
2017-11-24T17:17:26.367Z,7.97
2017-11-24T17:19:54.535Z,6.80
2017-11-24T17:22:23.433Z,7.47
2017-11-24T17:24:51.606Z,8.87
2017-11-24T17:27:20.549Z,7.97
2017-11-24T17:29:48.734Z,8.10
2017-11-24T17:32:16.897Z,8.77
2017-11-24T17:34:45.828Z,7.87
2017-11-24T17:37:13.984Z,7.63
2017-11-24T17:39:42.145Z,6.80
2017-11-24T17:42:10.338Z,7.37
2017-11-24T17:44:38.536Z,7.77
2017-11-24T17:47:06.697Z,8.00
2017-11-24T17:49:34.824Z,8.50
2017-11-24T17:52:02.992Z,9.27
2017-11-24T17:54:31.891Z,9.67
2017-11-24T17:57:00.052Z,9.90
2017-11-24T17:59:28.941Z,10.83
2017-11-24T18:01:57.856Z,11.47
2017-11-24T18:04:25.991Z,9.80
2017-11-24T18:06:54.921Z,10.63
2017-11-24T18:09:23.046Z,8.47
2017-11-24T18:11:51.177Z,8.27
2017-11-24T18:14:19.304Z,8.80
2017-11-24T18:16:48.231Z,7.60
2017-11-24T18:19:16.352Z,7.00
2017-11-24T18:21:44.495Z,6.40
2017-11-24T18:24:12.644Z,5.90
2017-11-24T18:26:40.882Z,6.10
2017-11-24T18:29:09.222Z,5.77
2017-11-24T18:31:37.385Z,5.50
2017-11-24T18:34:05.532Z,6.60
2017-11-24T18:36:33.762Z,4.80
2017-11-24T18:39:01.922Z,5.17
2017-11-24T18:41:30.071Z,5.23
2017-11-24T18:43:58.212Z,4.50
2017-11-24T18:46:26.349Z,4.70
2017-11-24T18:48:54.506Z,4.27
2017-11-24T18:51:22.649Z,4.47
2017-11-24T18:53:50.805Z,5.23
2017-11-24T18:56:19.733Z,5.30
2017-11-24T18:58:47.871Z,4.70
2017-11-24T19:01:16.054Z,4.87
2017-11-24T19:03:44.229Z,4.90
2017-11-24T19:06:12.412Z,4.73
2017-11-24T19:08:40.607Z,4.90
2017-11-24T19:11:08.771Z,5.10
2017-11-24T19:13:36.923Z,5.10
2017-11-24T19:16:05.042Z,5.40
2017-11-24T19:18:33.203Z,4.90
2017-11-24T19:21:01.334Z,4.70
2017-11-24T19:23:29.499Z,4.30
2017-11-24T19:25:57.691Z,4.60
2017-11-24T19:28:25.839Z,5.20
2017-11-24T19:30:54.746Z,8.70
2017-11-24T19:33:22.904Z,7.37
2017-11-24T19:35:51.035Z,7.53
2017-11-24T19:38:19.194Z,7.30
2017-11-24T19:40:47.353Z,10.90
2017-11-24T19:43:15.533Z,16.60
2017-11-24T19:45:43.698Z,6.67
2017-11-24T19:48:12.608Z,10.10
2017-11-24T19:50:40.749Z,4.83
2017-11-24T19:53:09.745Z,3.57
2017-11-24T19:55:37.947Z,3.97
2017-11-24T19:58:06.125Z,3.83
2017-11-24T20:00:34.420Z,3.80
2017-11-24T20:03:03.511Z,3.53
2017-11-24T20:05:32.627Z,3.60
2017-11-24T20:08:05.055Z,3.40
2017-11-24T20:10:33.488Z,3.63
2017-11-24T20:13:01.951Z,3.50
2017-11-24T20:15:30.418Z,3.67
2017-11-24T20:17:59.564Z,3.80
2017-11-24T20:20:27.943Z,3.40
2017-11-24T20:22:57.146Z,3.70
2017-11-24T20:25:25.593Z,3.00
2017-11-24T20:27:54.059Z,3.60
2017-11-24T20:30:22.510Z,3.80
2017-11-24T20:32:51.720Z,2.50
2017-11-24T20:35:20.183Z,3.13
2017-11-24T20:37:49.395Z,3.27
2017-11-24T20:40:18.597Z,2.83
2017-11-24T20:42:47.032Z,3.30
2017-11-24T20:45:15.506Z,3.60
2017-11-24T20:47:43.960Z,2.50
2017-11-24T20:50:12.395Z,3.37
2017-11-24T20:52:41.604Z,2.90
2017-11-24T20:55:10.073Z,3.63
2017-11-24T20:57:39.289Z,3.37
2017-11-24T21:00:07.644Z,3.33
2017-11-24T21:02:36.013Z,2.90
2017-11-24T21:05:05.319Z,2.80
2017-11-24T21:07:33.686Z,2.90
2017-11-24T21:10:02.039Z,2.90
2017-11-24T21:12:30.324Z,3.43
2017-11-24T21:14:58.531Z,3.13
2017-11-24T21:17:26.701Z,2.73
2017-11-24T21:19:54.948Z,2.73
2017-11-24T21:22:23.128Z,3.00
2017-11-24T21:24:51.285Z,2.60
2017-11-24T21:27:19.425Z,2.93
2017-11-24T21:29:48.341Z,3.17
2017-11-24T21:32:16.472Z,2.60
2017-11-24T21:34:45.403Z,3.03
2017-11-24T21:37:13.552Z,2.60
2017-11-24T21:39:42.478Z,2.43
2017-11-24T21:42:10.606Z,2.73
2017-11-24T21:44:38.754Z,2.40
2017-11-24T21:47:06.902Z,2.87
2017-11-24T21:49:35.051Z,3.23
2017-11-24T21:52:03.195Z,3.70
2017-11-24T21:54:32.134Z,4.40
2017-11-24T21:57:00.278Z,4.13
2017-11-24T21:59:29.163Z,4.60
2017-11-24T22:01:58.095Z,4.80
2017-11-24T22:04:26.219Z,6.53
2017-11-24T22:06:55.132Z,10.20
2017-11-24T22:09:23.292Z,9.73
2017-11-24T22:11:52.186Z,9.93
2017-11-24T22:14:20.372Z,7.70
2017-11-24T22:16:48.504Z,5.40
2017-11-24T22:19:16.649Z,5.10
2017-11-24T22:21:44.789Z,5.97
2017-11-24T22:24:13.702Z,4.70
2017-11-24T22:26:42.614Z,4.30
2017-11-24T22:29:10.750Z,3.80
2017-11-24T22:31:38.875Z,4.13
2017-11-24T22:34:07.832Z,3.53
2017-11-24T22:36:35.938Z,3.43
2017-11-24T22:39:04.885Z,3.33
2017-11-24T22:41:33.071Z,3.40
2017-11-24T22:44:01.194Z,2.83
2017-11-24T22:46:29.350Z,3.60
2017-11-24T22:48:59.090Z,4.07
2017-11-24T22:51:28.020Z,3.77
2017-11-24T22:53:56.912Z,3.07
2017-11-24T22:56:25.823Z,4.33
2017-11-24T22:58:54.739Z,7.20
2017-11-24T23:01:22.894Z,6.60
2017-11-24T23:03:51.039Z,5.50
2017-11-24T23:06:19.188Z,6.00
2017-11-24T23:08:47.358Z,5.73
2017-11-24T23:11:15.498Z,6.10
2017-11-24T23:13:44.436Z,4.77
2017-11-24T23:16:12.648Z,4.73
2017-11-24T23:18:40.764Z,5.10
2017-11-24T23:21:08.946Z,5.37
2017-11-24T23:23:37.103Z,4.13
2017-11-24T23:26:05.970Z,5.63
2017-11-24T23:28:34.167Z,7.17
2017-11-24T23:31:02.301Z,6.53
2017-11-24T23:33:30.439Z,7.30
2017-11-24T23:35:58.577Z,5.20
2017-11-24T23:38:27.495Z,4.20
2017-11-24T23:40:55.643Z,4.10
2017-11-24T23:43:23.799Z,4.50
2017-11-24T23:45:52.697Z,3.73
2017-11-24T23:48:20.830Z,4.00
2017-11-24T23:50:49.010Z,3.70
2017-11-24T23:53:17.129Z,3.17
2017-11-24T23:55:45.274Z,3.50
2017-11-24T23:58:14.177Z,4.13
